Terminal Aerodrome Forecast
Issued by NWS Cleveland, OH

Home | Current Version | Previous Version | Graphics & Text | Print | Product List | Glossary On
Versions: 1 2 3 4 5 6 7 8 9 10 11 12 13 14 15 16 17 18 19 20
000
FTUS41 KCLE 290716 AAA
TAFCAK
TAF AMD
KCAK 290716Z 2907/3006 10006KT P6SM VCSH SCT025 OVC050
     FM291200 09008KT 5SM BR VCSH BKN006 OVC015
     FM292000 08012G20KT 4SM -RA OVC006=

USA.gov is the U.S. government's official web portal to all federal, state and local government web resources and services.